sensor_id;sensor_type;location;lat;lon;timestamp;P1;durP1;ratioP1;P2;durP2;ratioP2
48613;SDS011;34408;51.426;5.444;2023-07-29T00:00:20;2.88;;;1.98;;
48613;SDS011;34408;51.426;5.444;2023-07-29T00:02:48;4.50;;;2.30;;
48613;SDS011;34408;51.426;5.444;2023-07-29T00:05:16;3.47;;;1.90;;
48613;SDS011;34408;51.426;5.444;2023-07-29T00:07:44;4.68;;;2.35;;
48613;SDS011;34408;51.426;5.444;2023-07-29T00:10:11;3.67;;;2.10;;
48613;SDS011;34408;51.426;5.444;2023-07-29T00:12:41;4.18;;;2.00;;
48613;SDS011;34408;51.426;5.444;2023-07-29T00:15:09;4.05;;;2.35;;
48613;SDS011;34408;51.426;5.444;2023-07-29T00:17:37;5.45;;;2.30;;
48613;SDS011;34408;51.426;5.444;2023-07-29T00:20:05;4.10;;;2.28;;
48613;SDS011;34408;51.426;5.444;2023-07-29T00:22:34;3.20;;;2.10;;
48613;SDS011;34408;51.426;5.444;2023-07-29T00:25:02;4.43;;;2.50;;
48613;SDS011;34408;51.426;5.444;2023-07-29T00:27:30;5.88;;;2.15;;
48613;SDS011;34408;51.426;5.444;2023-07-29T00:29:59;6.20;;;2.05;;
48613;SDS011;34408;51.426;5.444;2023-07-29T00:32:29;7.93;;;2.28;;
48613;SDS011;34408;51.426;5.444;2023-07-29T00:34:57;4.53;;;1.80;;
48613;SDS011;34408;51.426;5.444;2023-07-29T00:37:27;5.95;;;2.92;;
48613;SDS011;34408;51.426;5.444;2023-07-29T00:39:55;6.30;;;2.40;;
48613;SDS011;34408;51.426;5.444;2023-07-29T00:42:24;3.90;;;2.10;;
48613;SDS011;34408;51.426;5.444;2023-07-29T00:44:52;3.90;;;2.10;;
48613;SDS011;34408;51.426;5.444;2023-07-29T00:47:21;3.90;;;1.88;;
48613;SDS011;34408;51.426;5.444;2023-07-29T00:49:50;4.32;;;2.20;;
48613;SDS011;34408;51.426;5.444;2023-07-29T00:52:18;2.80;;;2.10;;
48613;SDS011;34408;51.426;5.444;2023-07-29T00:54:46;4.68;;;2.38;;
48613;SDS011;34408;51.426;5.444;2023-07-29T00:57:14;4.30;;;2.40;;
48613;SDS011;34408;51.426;5.444;2023-07-29T00:59:44;4.10;;;1.95;;
48613;SDS011;34408;51.426;5.444;2023-07-29T01:02:12;5.80;;;2.20;;
48613;SDS011;34408;51.426;5.444;2023-07-29T01:04:41;3.60;;;2.17;;
48613;SDS011;34408;51.426;5.444;2023-07-29T01:07:12;3.47;;;2.40;;
48613;SDS011;34408;51.426;5.444;2023-07-29T01:12:19;4.85;;;2.28;;
48613;SDS011;34408;51.426;5.444;2023-07-29T01:14:51;5.40;;;2.30;;
48613;SDS011;34408;51.426;5.444;2023-07-29T01:17:31;4.18;;;1.98;;
48613;SDS011;34408;51.426;5.444;2023-07-29T01:20:08;3.47;;;2.40;;
48613;SDS011;34408;51.426;5.444;2023-07-29T01:22:38;5.45;;;2.00;;
48613;SDS011;34408;51.426;5.444;2023-07-29T01:25:08;3.05;;;1.98;;
48613;SDS011;34408;51.426;5.444;2023-07-29T01:27:36;3.40;;;2.10;;
48613;SDS011;34408;51.426;5.444;2023-07-29T01:30:04;4.15;;;2.00;;
48613;SDS011;34408;51.426;5.444;2023-07-29T01:32:35;3.67;;;1.88;;
48613;SDS011;34408;51.426;5.444;2023-07-29T01:35:11;3.28;;;2.00;;
48613;SDS011;34408;51.426;5.444;2023-07-29T01:37:47;4.80;;;2.17;;
48613;SDS011;34408;51.426;5.444;2023-07-29T01:40:19;4.00;;;1.98;;
48613;SDS011;34408;51.426;5.444;2023-07-29T01:42:50;5.63;;;1.90;;
48613;SDS011;34408;51.426;5.444;2023-07-29T01:45:18;2.72;;;2.20;;
48613;SDS011;34408;51.426;5.444;2023-07-29T01:47:46;2.78;;;2.13;;
48613;SDS011;34408;51.426;5.444;2023-07-29T01:50:14;5.38;;;2.13;;
48613;SDS011;34408;51.426;5.444;2023-07-29T01:52:42;5.32;;;1.90;;
48613;SDS011;34408;51.426;5.444;2023-07-29T01:55:09;4.32;;;2.28;;
48613;SDS011;34408;51.426;5.444;2023-07-29T01:57:39;3.58;;;2.15;;
48613;SDS011;34408;51.426;5.444;2023-07-29T02:00:07;6.53;;;2.35;;
48613;SDS011;34408;51.426;5.444;2023-07-29T02:02:35;3.22;;;1.95;;
48613;SDS011;34408;51.426;5.444;2023-07-29T02:05:03;4.88;;;2.50;;
48613;SDS011;34408;51.426;5.444;2023-07-29T02:07:32;4.18;;;2.08;;
48613;SDS011;34408;51.426;5.444;2023-07-29T02:09:59;3.75;;;2.25;;
48613;SDS011;34408;51.426;5.444;2023-07-29T02:12:27;5.95;;;2.78;;
48613;SDS011;34408;51.426;5.444;2023-07-29T02:14:56;5.45;;;2.60;;
48613;SDS011;34408;51.426;5.444;2023-07-29T02:17:24;3.30;;;2.45;;
48613;SDS011;34408;51.426;5.444;2023-07-29T02:19:53;3.53;;;2.35;;
48613;SDS011;34408;51.426;5.444;2023-07-29T02:22:20;3.33;;;2.08;;
48613;SDS011;34408;51.426;5.444;2023-07-29T02:24:48;5.93;;;2.38;;
48613;SDS011;34408;51.426;5.444;2023-07-29T02:27:16;5.50;;;2.17;;
48613;SDS011;34408;51.426;5.444;2023-07-29T02:29:44;6.13;;;2.50;;
48613;SDS011;34408;51.426;5.444;2023-07-29T02:32:13;2.85;;;2.05;;
48613;SDS011;34408;51.426;5.444;2023-07-29T02:34:41;3.13;;;1.95;;
48613;SDS011;34408;51.426;5.444;2023-07-29T02:37:09;3.55;;;2.10;;
48613;SDS011;34408;51.426;5.444;2023-07-29T02:39:37;3.65;;;1.70;;
48613;SDS011;34408;51.426;5.444;2023-07-29T02:42:04;5.88;;;2.47;;
48613;SDS011;34408;51.426;5.444;2023-07-29T02:44:32;4.32;;;2.30;;
48613;SDS011;34408;51.426;5.444;2023-07-29T02:47:00;3.70;;;1.92;;
48613;SDS011;34408;51.426;5.444;2023-07-29T02:49:29;4.20;;;2.30;;
48613;SDS011;34408;51.426;5.444;2023-07-29T02:51:57;3.20;;;1.73;;
48613;SDS011;34408;51.426;5.444;2023-07-29T02:54:25;3.25;;;2.10;;
48613;SDS011;34408;51.426;5.444;2023-07-29T02:56:52;4.60;;;2.67;;
48613;SDS011;34408;51.426;5.444;2023-07-29T02:59:20;3.83;;;2.22;;
48613;SDS011;34408;51.426;5.444;2023-07-29T03:01:48;3.45;;;2.00;;
48613;SDS011;34408;51.426;5.444;2023-07-29T03:04:16;3.35;;;2.00;;
48613;SDS011;34408;51.426;5.444;2023-07-29T03:06:45;3.72;;;1.98;;
48613;SDS011;34408;51.426;5.444;2023-07-29T03:09:14;3.40;;;2.20;;
48613;SDS011;34408;51.426;5.444;2023-07-29T03:11:42;2.78;;;2.08;;
48613;SDS011;34408;51.426;5.444;2023-07-29T03:14:10;3.40;;;1.77;;
48613;SDS011;34408;51.426;5.444;2023-07-29T03:16:39;4.50;;;1.83;;
48613;SDS011;34408;51.426;5.444;2023-07-29T03:19:06;2.78;;;1.83;;
48613;SDS011;34408;51.426;5.444;2023-07-29T03:21:34;3.35;;;1.80;;
48613;SDS011;34408;51.426;5.444;2023-07-29T03:24:03;3.45;;;1.90;;
48613;SDS011;34408;51.426;5.444;2023-07-29T03:26:33;2.33;;;1.85;;
48613;SDS011;34408;51.426;5.444;2023-07-29T03:29:01;3.15;;;1.90;;
48613;SDS011;34408;51.426;5.444;2023-07-29T03:31:29;5.45;;;2.17;;
48613;SDS011;34408;51.426;5.444;2023-07-29T03:33:57;3.65;;;1.92;;
48613;SDS011;34408;51.426;5.444;2023-07-29T03:36:24;3.70;;;1.98;;
48613;SDS011;34408;51.426;5.444;2023-07-29T03:38:52;5.07;;;2.10;;
48613;SDS011;34408;51.426;5.444;2023-07-29T03:41:22;3.90;;;1.77;;
48613;SDS011;34408;51.426;5.444;2023-07-29T03:43:49;3.17;;;1.90;;
48613;SDS011;34408;51.426;5.444;2023-07-29T03:46:17;3.53;;;1.90;;
48613;SDS011;34408;51.426;5.444;2023-07-29T03:48:48;3.53;;;1.73;;
48613;SDS011;34408;51.426;5.444;2023-07-29T03:51:15;2.35;;;1.63;;
48613;SDS011;34408;51.426;5.444;2023-07-29T03:53:43;3.13;;;2.20;;
48613;SDS011;34408;51.426;5.444;2023-07-29T03:56:11;3.53;;;2.08;;
48613;SDS011;34408;51.426;5.444;2023-07-29T03:58:40;3.50;;;2.00;;
48613;SDS011;34408;51.426;5.444;2023-07-29T04:01:08;4.75;;;1.95;;
48613;SDS011;34408;51.426;5.444;2023-07-29T04:03:36;3.47;;;1.90;;
48613;SDS011;34408;51.426;5.444;2023-07-29T04:06:03;2.00;;;1.60;;
48613;SDS011;34408;51.426;5.444;2023-07-29T04:08:31;2.95;;;1.75;;
48613;SDS011;34408;51.426;5.444;2023-07-29T04:10:59;2.70;;;1.90;;
48613;SDS011;34408;51.426;5.444;2023-07-29T04:13:27;2.67;;;1.60;;
48613;SDS011;34408;51.426;5.444;2023-07-29T04:15:56;3.00;;;1.67;;
48613;SDS011;34408;51.426;5.444;2023-07-29T04:18:24;3.90;;;1.90;;
48613;SDS011;34408;51.426;5.444;2023-07-29T04:20:52;4.22;;;1.70;;
48613;SDS011;34408;51.426;5.444;2023-07-29T04:23:19;2.17;;;1.48;;
48613;SDS011;34408;51.426;5.444;2023-07-29T04:25:47;2.35;;;1.80;;
48613;SDS011;34408;51.426;5.444;2023-07-29T04:28:16;2.63;;;1.67;;
48613;SDS011;34408;51.426;5.444;2023-07-29T04:30:44;2.58;;;1.60;;
48613;SDS011;34408;51.426;5.444;2023-07-29T04:33:13;9.93;;;2.20;;
48613;SDS011;34408;51.426;5.444;2023-07-29T04:35:40;2.05;;;1.70;;
48613;SDS011;34408;51.426;5.444;2023-07-29T04:38:08;2.00;;;1.40;;
48613;SDS011;34408;51.426;5.444;2023-07-29T04:40:36;4.40;;;1.77;;
48613;SDS011;34408;51.426;5.444;2023-07-29T04:43:04;3.80;;;1.60;;
48613;SDS011;34408;51.426;5.444;2023-07-29T04:45:32;3.22;;;1.60;;
48613;SDS011;34408;51.426;5.444;2023-07-29T04:47:59;2.70;;;1.90;;
48613;SDS011;34408;51.426;5.444;2023-07-29T04:50:29;2.85;;;1.63;;
48613;SDS011;34408;51.426;5.444;2023-07-29T04:52:56;4.50;;;1.52;;
48613;SDS011;34408;51.426;5.444;2023-07-29T04:55:24;4.18;;;1.23;;
48613;SDS011;34408;51.426;5.444;2023-07-29T04:57:52;2.95;;;1.77;;
48613;SDS011;34408;51.426;5.444;2023-07-29T05:00:20;2.80;;;1.92;;
48613;SDS011;34408;51.426;5.444;2023-07-29T05:02:48;3.97;;;1.70;;
48613;SDS011;34408;51.426;5.444;2023-07-29T05:05:16;3.53;;;1.75;;
48613;SDS011;34408;51.426;5.444;2023-07-29T05:07:45;1.27;;;1.17;;
48613;SDS011;34408;51.426;5.444;2023-07-29T05:10:13;5.25;;;1.30;;
48613;SDS011;34408;51.426;5.444;2023-07-29T05:12:40;2.38;;;1.38;;
48613;SDS011;34408;51.426;5.444;2023-07-29T05:15:09;2.60;;;1.42;;
48613;SDS011;34408;51.426;5.444;2023-07-29T05:17:37;3.60;;;1.77;;
48613;SDS011;34408;51.426;5.444;2023-07-29T05:20:06;3.58;;;1.95;;
48613;SDS011;34408;51.426;5.444;2023-07-29T05:22:34;5.22;;;1.50;;
48613;SDS011;34408;51.426;5.444;2023-07-29T05:25:04;2.40;;;1.58;;
48613;SDS011;34408;51.426;5.444;2023-07-29T05:27:33;1.90;;;1.50;;
48613;SDS011;34408;51.426;5.444;2023-07-29T05:30:00;1.98;;;1.60;;
48613;SDS011;34408;51.426;5.444;2023-07-29T05:32:28;1.70;;;1.30;;
48613;SDS011;34408;51.426;5.444;2023-07-29T05:34:56;2.50;;;1.55;;
48613;SDS011;34408;51.426;5.444;2023-07-29T05:37:24;1.90;;;1.50;;
48613;SDS011;34408;51.426;5.444;2023-07-29T05:39:52;3.17;;;1.42;;
48613;SDS011;34408;51.426;5.444;2023-07-29T05:42:21;2.20;;;1.40;;
48613;SDS011;34408;51.426;5.444;2023-07-29T05:44:48;2.92;;;1.70;;
48613;SDS011;34408;51.426;5.444;2023-07-29T05:47:16;2.35;;;1.63;;
48613;SDS011;34408;51.426;5.444;2023-07-29T05:49:44;1.77;;;1.42;;
48613;SDS011;34408;51.426;5.444;2023-07-29T05:52:12;1.70;;;1.40;;
48613;SDS011;34408;51.426;5.444;2023-07-29T05:54:39;2.17;;;1.50;;
48613;SDS011;34408;51.426;5.444;2023-07-29T05:57:09;2.55;;;1.50;;
48613;SDS011;34408;51.426;5.444;2023-07-29T05:59:38;2.35;;;1.40;;
48613;SDS011;34408;51.426;5.444;2023-07-29T06:02:06;2.20;;;1.25;;
48613;SDS011;34408;51.426;5.444;2023-07-29T06:04:34;2.42;;;1.48;;
48613;SDS011;34408;51.426;5.444;2023-07-29T06:07:02;3.10;;;1.60;;
48613;SDS011;34408;51.426;5.444;2023-07-29T06:09:30;2.15;;;1.50;;
48613;SDS011;34408;51.426;5.444;2023-07-29T06:11:58;3.60;;;1.35;;
48613;SDS011;34408;51.426;5.444;2023-07-29T06:14:25;2.72;;;1.40;;
48613;SDS011;34408;51.426;5.444;2023-07-29T06:16:55;2.13;;;1.50;;
48613;SDS011;34408;51.426;5.444;2023-07-29T06:19:22;2.70;;;1.33;;
48613;SDS011;34408;51.426;5.444;2023-07-29T06:21:50;5.45;;;1.52;;
48613;SDS011;34408;51.426;5.444;2023-07-29T06:24:18;3.10;;;1.67;;
48613;SDS011;34408;51.426;5.444;2023-07-29T06:26:46;1.48;;;1.30;;
48613;SDS011;34408;51.426;5.444;2023-07-29T06:29:14;1.67;;;1.30;;
48613;SDS011;34408;51.426;5.444;2023-07-29T06:31:41;2.33;;;1.65;;
48613;SDS011;34408;51.426;5.444;2023-07-29T06:34:10;2.13;;;1.40;;
48613;SDS011;34408;51.426;5.444;2023-07-29T06:36:38;3.40;;;1.23;;
48613;SDS011;34408;51.426;5.444;2023-07-29T06:39:06;2.75;;;1.60;;
48613;SDS011;34408;51.426;5.444;2023-07-29T06:41:34;2.65;;;1.38;;
48613;SDS011;34408;51.426;5.444;2023-07-29T06:44:01;3.95;;;1.40;;
48613;SDS011;34408;51.426;5.444;2023-07-29T06:46:29;2.75;;;1.55;;
48613;SDS011;34408;51.426;5.444;2023-07-29T06:48:57;2.63;;;1.63;;
48613;SDS011;34408;51.426;5.444;2023-07-29T06:51:26;3.38;;;1.30;;
48613;SDS011;34408;51.426;5.444;2023-07-29T06:53:55;2.47;;;1.55;;
48613;SDS011;34408;51.426;5.444;2023-07-29T06:56:23;2.80;;;1.50;;
48613;SDS011;34408;51.426;5.444;2023-07-29T06:58:51;3.10;;;1.20;;
48613;SDS011;34408;51.426;5.444;2023-07-29T07:01:19;3.80;;;1.80;;
48613;SDS011;34408;51.426;5.444;2023-07-29T07:03:46;7.00;;;1.60;;
48613;SDS011;34408;51.426;5.444;2023-07-29T07:06:14;6.35;;;1.73;;
48613;SDS011;34408;51.426;5.444;2023-07-29T07:08:44;4.60;;;1.67;;
48613;SDS011;34408;51.426;5.444;2023-07-29T07:11:12;2.78;;;1.92;;
48613;SDS011;34408;51.426;5.444;2023-07-29T07:13:40;5.05;;;1.75;;
48613;SDS011;34408;51.426;5.444;2023-07-29T07:16:07;4.60;;;1.80;;
48613;SDS011;34408;51.426;5.444;2023-07-29T07:18:35;3.38;;;1.48;;
48613;SDS011;34408;51.426;5.444;2023-07-29T07:21:03;2.45;;;1.33;;
48613;SDS011;34408;51.426;5.444;2023-07-29T07:23:31;2.25;;;1.42;;
48613;SDS011;34408;51.426;5.444;2023-07-29T07:26:00;1.98;;;1.50;;
48613;SDS011;34408;51.426;5.444;2023-07-29T07:28:28;3.72;;;1.52;;
48613;SDS011;34408;51.426;5.444;2023-07-29T07:30:56;3.55;;;1.70;;
48613;SDS011;34408;51.426;5.444;2023-07-29T07:33:23;1.20;;;1.10;;
48613;SDS011;34408;51.426;5.444;2023-07-29T07:35:52;1.55;;;1.23;;
48613;SDS011;34408;51.426;5.444;2023-07-29T07:38:20;2.22;;;1.50;;
48613;SDS011;34408;51.426;5.444;2023-07-29T07:40:54;3.28;;;1.55;;
48613;SDS011;34408;51.426;5.444;2023-07-29T07:43:24;2.47;;;1.35;;
48613;SDS011;34408;51.426;5.444;2023-07-29T07:45:57;3.60;;;1.40;;
48613;SDS011;34408;51.426;5.444;2023-07-29T07:48:25;2.17;;;1.38;;
48613;SDS011;34408;51.426;5.444;2023-07-29T07:50:53;1.23;;;1.10;;
48613;SDS011;34408;51.426;5.444;2023-07-29T07:53:21;2.50;;;1.17;;
48613;SDS011;34408;51.426;5.444;2023-07-29T07:55:49;3.63;;;1.42;;
48613;SDS011;34408;51.426;5.444;2023-07-29T07:58:17;2.17;;;1.40;;
48613;SDS011;34408;51.426;5.444;2023-07-29T08:00:46;2.30;;;1.70;;
48613;SDS011;34408;51.426;5.444;2023-07-29T08:03:13;2.22;;;1.40;;
48613;SDS011;34408;51.426;5.444;2023-07-29T08:05:41;3.92;;;1.27;;
48613;SDS011;34408;51.426;5.444;2023-07-29T08:08:09;5.72;;;1.95;;
48613;SDS011;34408;51.426;5.444;2023-07-29T08:10:37;2.25;;;1.42;;
48613;SDS011;34408;51.426;5.444;2023-07-29T08:13:05;2.13;;;1.60;;
48613;SDS011;34408;51.426;5.444;2023-07-29T08:15:33;3.72;;;1.50;;
48613;SDS011;34408;51.426;5.444;2023-07-29T08:18:02;2.33;;;1.27;;
48613;SDS011;34408;51.426;5.444;2023-07-29T08:20:30;3.33;;;1.40;;
48613;SDS011;34408;51.426;5.444;2023-07-29T08:22:59;2.10;;;1.40;;
48613;SDS011;34408;51.426;5.444;2023-07-29T08:25:26;2.67;;;1.48;;
48613;SDS011;34408;51.426;5.444;2023-07-29T08:27:56;2.95;;;1.85;;
48613;SDS011;34408;51.426;5.444;2023-07-29T08:30:24;2.65;;;1.27;;
48613;SDS011;34408;51.426;5.444;2023-07-29T08:32:52;1.45;;;1.33;;
48613;SDS011;34408;51.426;5.444;2023-07-29T08:35:21;1.88;;;1.30;;
48613;SDS011;34408;51.426;5.444;2023-07-29T08:37:49;1.50;;;1.10;;
48613;SDS011;34408;51.426;5.444;2023-07-29T08:40:17;4.97;;;1.55;;
48613;SDS011;34408;51.426;5.444;2023-07-29T08:42:44;3.35;;;1.80;;
48613;SDS011;34408;51.426;5.444;2023-07-29T08:45:14;2.88;;;1.25;;
48613;SDS011;34408;51.426;5.444;2023-07-29T08:47:44;4.40;;;1.40;;
48613;SDS011;34408;51.426;5.444;2023-07-29T08:50:13;2.42;;;1.30;;
48613;SDS011;34408;51.426;5.444;2023-07-29T08:52:43;4.25;;;1.45;;
48613;SDS011;34408;51.426;5.444;2023-07-29T08:55:12;2.65;;;1.10;;
48613;SDS011;34408;51.426;5.444;2023-07-29T08:57:40;3.25;;;1.60;;
48613;SDS011;34408;51.426;5.444;2023-07-29T09:00:08;3.72;;;1.30;;
48613;SDS011;34408;51.426;5.444;2023-07-29T09:02:37;2.58;;;1.30;;
48613;SDS011;34408;51.426;5.444;2023-07-29T09:05:06;2.60;;;1.40;;
48613;SDS011;34408;51.426;5.444;2023-07-29T09:07:35;1.52;;;1.15;;
48613;SDS011;34408;51.426;5.444;2023-07-29T09:10:07;4.75;;;1.17;;
48613;SDS011;34408;51.426;5.444;2023-07-29T09:12:36;5.32;;;1.50;;
48613;SDS011;34408;51.426;5.444;2023-07-29T09:15:05;2.55;;;1.33;;
48613;SDS011;34408;51.426;5.444;2023-07-29T09:17:33;2.15;;;1.40;;
48613;SDS011;34408;51.426;5.444;2023-07-29T09:20:01;1.15;;;1.00;;
48613;SDS011;34408;51.426;5.444;2023-07-29T09:22:31;2.35;;;1.67;;
48613;SDS011;34408;51.426;5.444;2023-07-29T09:24:59;2.63;;;1.30;;
48613;SDS011;34408;51.426;5.444;2023-07-29T09:27:28;2.60;;;1.20;;
48613;SDS011;34408;51.426;5.444;2023-07-29T09:29:58;7.88;;;1.25;;
48613;SDS011;34408;51.426;5.444;2023-07-29T09:32:25;4.05;;;1.30;;
48613;SDS011;34408;51.426;5.444;2023-07-29T09:34:53;2.90;;;1.20;;
48613;SDS011;34408;51.426;5.444;2023-07-29T09:37:21;2.05;;;1.35;;
48613;SDS011;34408;51.426;5.444;2023-07-29T09:39:51;1.42;;;1.05;;
48613;SDS011;34408;51.426;5.444;2023-07-29T09:42:19;3.78;;;1.38;;
48613;SDS011;34408;51.426;5.444;2023-07-29T09:44:49;4.38;;;1.52;;
48613;SDS011;34408;51.426;5.444;2023-07-29T09:47:20;3.17;;;1.20;;
48613;SDS011;34408;51.426;5.444;2023-07-29T09:49:49;2.65;;;1.30;;
48613;SDS011;34408;51.426;5.444;2023-07-29T09:52:18;1.50;;;1.00;;
48613;SDS011;34408;51.426;5.444;2023-07-29T09:54:47;2.28;;;1.50;;
48613;SDS011;34408;51.426;5.444;2023-07-29T09:57:16;1.25;;;1.13;;
48613;SDS011;34408;51.426;5.444;2023-07-29T09:59:54;1.92;;;1.33;;
48613;SDS011;34408;51.426;5.444;2023-07-29T10:02:22;1.42;;;1.05;;
48613;SDS011;34408;51.426;5.444;2023-07-29T10:04:54;2.25;;;1.30;;
48613;SDS011;34408;51.426;5.444;2023-07-29T10:07:23;1.30;;;1.20;;
48613;SDS011;34408;51.426;5.444;2023-07-29T10:09:52;2.33;;;1.30;;
48613;SDS011;34408;51.426;5.444;2023-07-29T10:12:21;1.58;;;1.10;;
48613;SDS011;34408;51.426;5.444;2023-07-29T10:14:50;2.72;;;1.42;;
48613;SDS011;34408;51.426;5.444;2023-07-29T10:17:19;1.55;;;1.13;;
48613;SDS011;34408;51.426;5.444;2023-07-29T10:19:48;1.42;;;1.30;;
48613;SDS011;34408;51.426;5.444;2023-07-29T10:22:17;3.03;;;1.15;;
48613;SDS011;34408;51.426;5.444;2023-07-29T10:24:47;1.90;;;1.20;;
48613;SDS011;34408;51.426;5.444;2023-07-29T10:27:17;1.55;;;1.00;;
48613;SDS011;34408;51.426;5.444;2023-07-29T10:29:46;2.22;;;1.17;;
48613;SDS011;34408;51.426;5.444;2023-07-29T10:32:15;1.67;;;1.33;;
48613;SDS011;34408;51.426;5.444;2023-07-29T10:34:45;3.42;;;1.05;;
48613;SDS011;34408;51.426;5.444;2023-07-29T10:37:13;1.27;;;0.88;;
48613;SDS011;34408;51.426;5.444;2023-07-29T10:39:44;1.23;;;1.10;;
48613;SDS011;34408;51.426;5.444;2023-07-29T10:42:20;3.55;;;1.45;;
48613;SDS011;34408;51.426;5.444;2023-07-29T10:44:50;1.08;;;1.00;;
48613;SDS011;34408;51.426;5.444;2023-07-29T10:47:20;3.65;;;1.35;;
48613;SDS011;34408;51.426;5.444;2023-07-29T10:49:51;2.10;;;1.40;;
48613;SDS011;34408;51.426;5.444;2023-07-29T10:52:30;2.03;;;1.30;;
48613;SDS011;34408;51.426;5.444;2023-07-29T10:55:23;1.63;;;1.17;;
48613;SDS011;34408;51.426;5.444;2023-07-29T10:58:03;2.17;;;1.20;;
48613;SDS011;34408;51.426;5.444;2023-07-29T11:00:36;1.27;;;1.13;;
48613;SDS011;34408;51.426;5.444;2023-07-29T11:03:05;7.28;;;1.27;;
48613;SDS011;34408;51.426;5.444;2023-07-29T11:05:49;2.08;;;1.40;;
48613;SDS011;34408;51.426;5.444;2023-07-29T11:08:19;3.28;;;1.23;;
48613;SDS011;34408;51.426;5.444;2023-07-29T11:10:57;2.65;;;1.40;;
48613;SDS011;34408;51.426;5.444;2023-07-29T11:13:31;5.78;;;1.20;;
48613;SDS011;34408;51.426;5.444;2023-07-29T11:15:59;2.40;;;1.08;;
48613;SDS011;34408;51.426;5.444;2023-07-29T11:18:28;3.92;;;1.35;;
48613;SDS011;34408;51.426;5.444;2023-07-29T11:20:58;2.15;;;0.98;;
48613;SDS011;34408;51.426;5.444;2023-07-29T11:23:28;1.25;;;0.95;;
48613;SDS011;34408;51.426;5.444;2023-07-29T11:25:57;2.55;;;1.27;;
48613;SDS011;34408;51.426;5.444;2023-07-29T11:28:26;2.88;;;1.48;;
48613;SDS011;34408;51.426;5.444;2023-07-29T11:30:54;2.40;;;1.40;;
48613;SDS011;34408;51.426;5.444;2023-07-29T11:33:23;1.85;;;1.10;;
48613;SDS011;34408;51.426;5.444;2023-07-29T11:35:52;1.65;;;1.20;;
48613;SDS011;34408;51.426;5.444;2023-07-29T11:38:21;1.70;;;1.23;;
48613;SDS011;34408;51.426;5.444;2023-07-29T11:40:56;2.00;;;1.45;;
48613;SDS011;34408;51.426;5.444;2023-07-29T11:43:25;2.83;;;1.08;;
48613;SDS011;34408;51.426;5.444;2023-07-29T11:45:54;2.70;;;1.30;;
48613;SDS011;34408;51.426;5.444;2023-07-29T11:48:28;2.42;;;1.60;;
48613;SDS011;34408;51.426;5.444;2023-07-29T11:53:27;3.00;;;1.80;;
48613;SDS011;34408;51.426;5.444;2023-07-29T11:55:56;2.05;;;1.13;;
48613;SDS011;34408;51.426;5.444;2023-07-29T11:58:24;2.05;;;1.40;;
48613;SDS011;34408;51.426;5.444;2023-07-29T12:00:53;2.08;;;1.20;;
48613;SDS011;34408;51.426;5.444;2023-07-29T12:03:21;1.83;;;1.48;;
48613;SDS011;34408;51.426;5.444;2023-07-29T12:05:49;5.60;;;2.58;;
48613;SDS011;34408;51.426;5.444;2023-07-29T12:08:17;1.70;;;1.58;;
48613;SDS011;34408;51.426;5.444;2023-07-29T12:10:47;2.25;;;1.38;;
48613;SDS011;34408;51.426;5.444;2023-07-29T12:13:15;2.90;;;1.40;;
48613;SDS011;34408;51.426;5.444;2023-07-29T12:15:43;1.95;;;1.50;;
48613;SDS011;34408;51.426;5.444;2023-07-29T12:18:10;2.92;;;1.58;;
48613;SDS011;34408;51.426;5.444;2023-07-29T12:20:39;2.15;;;1.52;;
48613;SDS011;34408;51.426;5.444;2023-07-29T12:23:07;1.70;;;1.55;;
48613;SDS011;34408;51.426;5.444;2023-07-29T12:25:35;2.58;;;1.40;;
48613;SDS011;34408;51.426;5.444;2023-07-29T12:28:05;4.55;;;1.55;;
48613;SDS011;34408;51.426;5.444;2023-07-29T12:30:33;3.55;;;1.60;;
48613;SDS011;34408;51.426;5.444;2023-07-29T12:33:01;2.67;;;1.50;;
48613;SDS011;34408;51.426;5.444;2023-07-29T12:35:34;5.05;;;1.83;;
48613;SDS011;34408;51.426;5.444;2023-07-29T12:38:03;4.15;;;1.80;;
48613;SDS011;34408;51.426;5.444;2023-07-29T12:40:31;5.60;;;2.25;;
48613;SDS011;34408;51.426;5.444;2023-07-29T12:42:59;4.45;;;2.28;;
48613;SDS011;34408;51.426;5.444;2023-07-29T12:45:28;4.10;;;2.05;;
48613;SDS011;34408;51.426;5.444;2023-07-29T12:48:06;3.85;;;2.10;;
48613;SDS011;34408;51.426;5.444;2023-07-29T12:50:33;2.88;;;1.45;;
48613;SDS011;34408;51.426;5.444;2023-07-29T12:53:01;3.42;;;1.63;;
48613;SDS011;34408;51.426;5.444;2023-07-29T12:55:29;4.30;;;1.88;;
48613;SDS011;34408;51.426;5.444;2023-07-29T12:57:57;4.25;;;1.60;;
48613;SDS011;34408;51.426;5.444;2023-07-29T13:00:25;2.70;;;1.40;;
48613;SDS011;34408;51.426;5.444;2023-07-29T13:02:54;3.08;;;1.40;;
48613;SDS011;34408;51.426;5.444;2023-07-29T13:05:22;2.97;;;1.40;;
48613;SDS011;34408;51.426;5.444;2023-07-29T13:07:50;2.92;;;1.60;;
48613;SDS011;34408;51.426;5.444;2023-07-29T13:10:18;3.90;;;1.52;;
48613;SDS011;34408;51.426;5.444;2023-07-29T13:12:46;3.63;;;1.60;;
48613;SDS011;34408;51.426;5.444;2023-07-29T13:15:14;2.08;;;1.20;;
48613;SDS011;34408;51.426;5.444;2023-07-29T13:17:42;2.92;;;1.55;;
48613;SDS011;34408;51.426;5.444;2023-07-29T13:20:11;4.45;;;1.77;;
48613;SDS011;34408;51.426;5.444;2023-07-29T13:22:39;8.80;;;1.90;;
48613;SDS011;34408;51.426;5.444;2023-07-29T13:25:07;4.50;;;1.30;;
48613;SDS011;34408;51.426;5.444;2023-07-29T13:27:35;3.35;;;1.27;;
48613;SDS011;34408;51.426;5.444;2023-07-29T13:30:03;2.70;;;1.60;;
48613;SDS011;34408;51.426;5.444;2023-07-29T13:32:32;6.50;;;2.25;;
48613;SDS011;34408;51.426;5.444;2023-07-29T13:35:00;6.97;;;2.63;;
48613;SDS011;34408;51.426;5.444;2023-07-29T13:37:29;3.25;;;1.77;;
48613;SDS011;34408;51.426;5.444;2023-07-29T13:39:56;5.50;;;2.03;;
48613;SDS011;34408;51.426;5.444;2023-07-29T13:42:24;4.05;;;1.50;;
48613;SDS011;34408;51.426;5.444;2023-07-29T13:44:52;6.45;;;1.80;;
48613;SDS011;34408;51.426;5.444;2023-07-29T13:47:20;3.15;;;1.70;;
48613;SDS011;34408;51.426;5.444;2023-07-29T13:49:48;4.43;;;1.90;;
48613;SDS011;34408;51.426;5.444;2023-07-29T13:52:15;4.57;;;1.63;;
48613;SDS011;34408;51.426;5.444;2023-07-29T13:54:44;2.25;;;1.40;;
48613;SDS011;34408;51.426;5.444;2023-07-29T13:57:12;4.20;;;1.40;;
48613;SDS011;34408;51.426;5.444;2023-07-29T13:59:40;2.28;;;1.20;;
48613;SDS011;34408;51.426;5.444;2023-07-29T14:02:08;4.10;;;1.85;;
48613;SDS011;34408;51.426;5.444;2023-07-29T14:04:36;4.43;;;1.70;;
48613;SDS011;34408;51.426;5.444;2023-07-29T14:07:04;1.95;;;1.20;;
48613;SDS011;34408;51.426;5.444;2023-07-29T14:09:32;2.00;;;1.13;;
48613;SDS011;34408;51.426;5.444;2023-07-29T14:12:01;4.97;;;1.40;;
48613;SDS011;34408;51.426;5.444;2023-07-29T14:14:30;2.15;;;1.50;;
48613;SDS011;34408;51.426;5.444;2023-07-29T14:16:57;2.08;;;1.60;;
48613;SDS011;34408;51.426;5.444;2023-07-29T14:19:25;2.67;;;1.77;;
48613;SDS011;34408;51.426;5.444;2023-07-29T14:21:53;3.45;;;1.50;;
48613;SDS011;34408;51.426;5.444;2023-07-29T14:24:21;4.80;;;1.90;;
48613;SDS011;34408;51.426;5.444;2023-07-29T14:26:49;3.45;;;1.88;;
48613;SDS011;34408;51.426;5.444;2023-07-29T14:29:18;3.97;;;2.17;;
48613;SDS011;34408;51.426;5.444;2023-07-29T14:31:46;2.63;;;1.80;;
48613;SDS011;34408;51.426;5.444;2023-07-29T14:34:14;2.67;;;1.80;;
48613;SDS011;34408;51.426;5.444;2023-07-29T14:36:41;4.07;;;1.83;;
48613;SDS011;34408;51.426;5.444;2023-07-29T14:39:09;3.15;;;2.03;;
48613;SDS011;34408;51.426;5.444;2023-07-29T14:41:37;4.38;;;2.17;;
48613;SDS011;34408;51.426;5.444;2023-07-29T14:44:05;2.08;;;1.63;;
48613;SDS011;34408;51.426;5.444;2023-07-29T14:46:34;1.63;;;1.20;;
48613;SDS011;34408;51.426;5.444;2023-07-29T14:49:02;1.90;;;1.67;;
48613;SDS011;34408;51.426;5.444;2023-07-29T14:51:30;1.75;;;1.38;;
48613;SDS011;34408;51.426;5.444;2023-07-29T14:53:58;2.75;;;1.90;;
48613;SDS011;34408;51.426;5.444;2023-07-29T14:56:26;5.80;;;2.00;;
48613;SDS011;34408;51.426;5.444;2023-07-29T14:58:54;3.67;;;1.80;;
48613;SDS011;34408;51.426;5.444;2023-07-29T15:01:21;4.40;;;2.10;;